createdAt,value
2018-05-10T00:00:32.771Z,78.94
2018-05-10T00:03:01.787Z,80.56
2018-05-10T00:05:30.027Z,82.36
2018-05-10T00:07:58.384Z,82.70
2018-05-10T00:10:26.533Z,82.74
2018-05-10T00:12:55.132Z,83.64
2018-05-10T00:15:24.036Z,80.55
2018-05-10T00:17:52.280Z,80.37
2018-05-10T00:20:21.295Z,82.11
2018-05-10T00:22:49.539Z,83.38
2018-05-10T00:25:18.555Z,83.48
2018-05-10T00:27:47.570Z,84.46
2018-05-10T00:30:15.811Z,83.97
2018-05-10T00:32:44.063Z,84.40
2018-05-10T00:35:12.314Z,85.00
2018-05-10T00:37:40.568Z,84.42
2018-05-10T00:40:09.583Z,84.00
2018-05-10T00:42:37.839Z,80.72
2018-05-10T00:45:07.471Z,82.54
2018-05-10T00:47:35.725Z,83.20
2018-05-10T00:50:04.734Z,81.91
2018-05-10T00:52:33.756Z,83.64
2018-05-10T00:55:01.994Z,83.96
2018-05-10T00:57:30.247Z,84.52
2018-05-10T00:59:58.493Z,83.93
2018-05-10T01:02:26.740Z,84.29
2018-05-10T01:04:55.812Z,83.52
2018-05-10T01:07:26.010Z,85.29
2018-05-10T01:09:54.244Z,85.17
2018-05-10T01:12:23.259Z,85.64
2018-05-10T01:14:51.501Z,85.07
2018-05-10T01:17:19.756Z,86.57
2018-05-10T01:19:47.999Z,85.22
2018-05-10T01:22:16.255Z,85.49
2018-05-10T01:24:44.509Z,85.72
2018-05-10T01:27:12.750Z,86.04
2018-05-10T01:29:41.009Z,86.30
2018-05-10T01:32:10.015Z,87.65
2018-05-10T01:34:39.033Z,86.38
2018-05-10T01:37:07.285Z,85.88
2018-05-10T01:39:36.292Z,86.30
2018-05-10T01:42:05.298Z,86.36
2018-05-10T01:44:33.559Z,86.99
2018-05-10T01:47:02.563Z,86.43
2018-05-10T01:49:31.583Z,86.51
2018-05-10T01:51:59.831Z,86.81
2018-05-10T01:54:28.847Z,87.15
2018-05-10T01:56:57.078Z,87.37
2018-05-10T01:59:25.340Z,87.00
2018-05-10T02:01:53.578Z,86.79
2018-05-10T02:04:22.602Z,87.11
2018-05-10T02:06:50.839Z,86.00
2018-05-10T02:09:19.091Z,85.20
2018-05-10T02:11:47.340Z,86.44
2018-05-10T02:14:15.603Z,87.12
2018-05-10T02:16:43.855Z,88.05
2018-05-10T02:19:12.105Z,87.89
2018-05-10T02:21:41.586Z,86.35
2018-05-10T02:24:09.834Z,87.36
2018-05-10T02:26:38.842Z,87.84
2018-05-10T02:29:07.869Z,88.51
2018-05-10T02:31:36.116Z,88.14
2018-05-10T02:34:05.145Z,87.94
2018-05-10T02:36:33.375Z,88.15
2018-05-10T02:39:01.623Z,88.74
2018-05-10T02:41:29.878Z,88.12
2018-05-10T02:43:58.128Z,88.45
2018-05-10T02:46:27.138Z,88.38
2018-05-10T02:48:56.152Z,88.60
2018-05-10T02:51:24.403Z,89.14
2018-05-10T02:53:53.414Z,89.05
2018-05-10T02:56:22.431Z,89.75
2018-05-10T02:58:50.687Z,89.08
2018-05-10T03:01:19.705Z,88.92
2018-05-10T03:03:47.940Z,88.66
2018-05-10T03:06:16.238Z,88.73
2018-05-10T03:08:45.243Z,87.91
2018-05-10T03:11:14.268Z,89.01
2018-05-10T03:13:42.512Z,89.34
2018-05-10T03:16:11.531Z,88.40
2018-05-10T03:18:39.771Z,86.63
2018-05-10T03:21:08.033Z,86.47
2018-05-10T03:23:36.271Z,85.42
2018-05-10T03:26:04.535Z,87.06
2018-05-10T03:28:33.545Z,88.22
2018-05-10T03:31:02.562Z,87.43
2018-05-10T03:33:30.804Z,87.12
2018-05-10T03:35:59.827Z,86.90
2018-05-10T03:38:28.079Z,86.81
2018-05-10T03:40:56.326Z,88.20
2018-05-10T03:43:24.565Z,88.26
2018-05-10T03:45:52.819Z,87.12
2018-05-10T03:48:21.833Z,88.13
2018-05-10T03:50:50.884Z,88.04
2018-05-10T03:53:19.112Z,87.77
2018-05-10T03:55:47.466Z,88.74
2018-05-10T03:58:15.710Z,88.39
2018-05-10T04:00:43.968Z,88.42
2018-05-10T04:06:49.066Z,86.78
2018-05-10T04:12:24.347Z,86.45
2018-05-10T04:14:52.595Z,85.63
2018-05-10T04:17:21.614Z,86.75
2018-05-10T04:19:49.863Z,86.70
2018-05-10T04:22:18.883Z,86.48
2018-05-10T04:24:47.915Z,84.57
2018-05-10T04:27:17.405Z,84.68
2018-05-10T04:29:45.657Z,83.89
2018-05-10T04:32:14.676Z,80.99
2018-05-10T04:34:42.919Z,81.99
2018-05-10T04:37:11.171Z,81.17
2018-05-10T04:39:39.410Z,81.88
2018-05-10T04:42:07.698Z,81.86
2018-05-10T04:44:36.687Z,81.67
2018-05-10T04:47:04.958Z,81.51
2018-05-10T04:49:33.936Z,80.11
2018-05-10T04:52:02.184Z,78.49
2018-05-10T04:54:30.436Z,75.69
2018-05-10T04:56:58.699Z,75.50
2018-05-10T04:59:27.709Z,75.03
2018-05-10T05:01:55.959Z,73.63
2018-05-10T05:04:24.976Z,73.13
2018-05-10T05:06:54.003Z,72.14
2018-05-10T05:09:23.075Z,72.15
2018-05-10T05:11:51.397Z,71.90
2018-05-10T05:14:20.361Z,65.58
2018-05-10T05:16:48.615Z,59.35
2018-05-10T05:19:17.671Z,51.36
2018-05-10T05:21:45.903Z,45.02
2018-05-10T05:24:14.925Z,46.74
2018-05-10T05:26:43.188Z,56.02
2018-05-10T05:29:12.199Z,60.97
2018-05-10T05:31:40.495Z,64.76
2018-05-10T05:34:09.484Z,68.18
2018-05-10T05:36:37.842Z,68.66
2018-05-10T05:39:05.997Z,54.97
2018-05-10T05:41:34.795Z,49.76
2018-05-10T05:44:03.824Z,43.23
2018-05-10T05:46:32.084Z,45.11
2018-05-10T05:49:01.124Z,47.26
2018-05-10T05:51:29.375Z,44.08
2018-05-10T05:53:58.400Z,37.69
2018-05-10T05:56:26.642Z,34.03
2018-05-10T05:58:55.671Z,32.21
2018-05-10T06:01:23.940Z,31.92
2018-05-10T06:03:52.206Z,28.37
2018-05-10T06:06:21.220Z,26.51
2018-05-10T06:08:49.487Z,26.33
2018-05-10T06:11:18.506Z,26.10
2018-05-10T06:13:47.631Z,24.50
2018-05-10T06:16:15.890Z,22.16
2018-05-10T06:18:44.147Z,23.58
2018-05-10T06:21:12.441Z,24.83
2018-05-10T06:23:40.671Z,22.89
2018-05-10T06:26:08.929Z,23.66
2018-05-10T06:28:37.182Z,24.32
2018-05-10T06:31:05.431Z,26.78
2018-05-10T06:33:34.459Z,21.25
2018-05-10T06:36:02.710Z,22.94
2018-05-10T06:38:31.751Z,20.03
2018-05-10T06:41:00.003Z,21.86
2018-05-10T06:43:29.028Z,23.34
2018-05-10T06:45:57.279Z,19.54
2018-05-10T06:48:26.323Z,22.12
2018-05-10T06:50:54.578Z,23.01
2018-05-10T06:53:22.834Z,24.27
2018-05-10T06:55:51.093Z,21.71
2018-05-10T06:58:19.360Z,18.83
2018-05-10T07:00:47.615Z,16.22
2018-05-10T07:03:15.892Z,18.58
2018-05-10T07:05:44.130Z,20.57
2018-05-10T07:08:13.163Z,24.09
2018-05-10T07:10:41.412Z,25.30
2018-05-10T07:13:10.439Z,22.45
2018-05-10T07:15:38.699Z,20.09
2018-05-10T07:18:06.975Z,22.00
2018-05-10T07:20:35.995Z,20.77
2018-05-10T07:23:04.251Z,22.80
2018-05-10T07:25:33.274Z,20.55
2018-05-10T07:28:01.544Z,23.55
2018-05-10T07:32:58.156Z,25.93
2018-05-10T07:35:27.845Z,21.80
2018-05-10T07:37:56.100Z,24.56
2018-05-10T07:40:24.351Z,23.93
2018-05-10T07:42:53.379Z,24.49
2018-05-10T07:45:21.645Z,23.77
2018-05-10T07:47:50.674Z,26.07
2018-05-10T07:50:18.927Z,27.96
2018-05-10T07:52:47.182Z,31.72
2018-05-10T07:55:15.447Z,35.70
2018-05-10T07:57:43.705Z,38.38
2018-05-10T08:00:11.971Z,39.39
2018-05-10T08:02:40.224Z,37.63
2018-05-10T08:05:09.258Z,36.56
2018-05-10T08:07:38.439Z,33.51
2018-05-10T08:10:06.716Z,31.40
2018-05-10T08:12:35.733Z,33.13
2018-05-10T08:15:04.004Z,35.69
2018-05-10T08:17:32.252Z,36.77
2018-05-10T08:20:01.275Z,37.25
2018-05-10T08:22:29.535Z,39.04
2018-05-10T08:24:58.555Z,37.87
2018-05-10T08:27:52.433Z,39.59
2018-05-10T08:30:20.708Z,34.17
2018-05-10T08:32:48.947Z,30.11
2018-05-10T08:35:17.220Z,24.12
2018-05-10T08:37:45.453Z,22.50
2018-05-10T08:40:13.721Z,25.37
2018-05-10T08:42:41.965Z,26.58
2018-05-10T08:45:10.407Z,29.13
2018-05-10T08:47:38.502Z,30.12
2018-05-10T08:50:06.755Z,31.92
2018-05-10T08:52:35.015Z,32.61
2018-05-10T08:55:03.280Z,35.38
2018-05-10T08:57:32.286Z,36.35
2018-05-10T09:00:00.590Z,36.25
2018-05-10T09:02:29.571Z,34.96
2018-05-10T09:04:57.831Z,35.32
2018-05-10T09:07:26.903Z,35.25
2018-05-10T09:09:55.125Z,37.13
2018-05-10T09:12:24.147Z,37.17
2018-05-10T09:14:52.403Z,36.58
2018-05-10T09:17:20.656Z,34.36
2018-05-10T09:19:48.920Z,27.24
2018-05-10T09:22:17.177Z,23.77
2018-05-10T09:24:45.438Z,24.70
2018-05-10T09:27:13.688Z,25.56
2018-05-10T09:29:43.980Z,28.65
2018-05-10T09:32:12.227Z,32.85
2018-05-10T09:34:40.494Z,27.72
2018-05-10T09:37:08.756Z,24.91
2018-05-10T09:39:37.784Z,25.22
2018-05-10T09:42:06.069Z,26.13
2018-05-10T09:44:34.321Z,23.60
2018-05-10T09:47:03.343Z,26.55
2018-05-10T09:49:31.590Z,24.94
2018-05-10T09:52:00.905Z,24.76
2018-05-10T09:54:29.919Z,24.66
2018-05-10T09:56:58.208Z,23.72
2018-05-10T09:59:26.459Z,21.87
2018-05-10T10:01:55.494Z,24.08
2018-05-10T10:04:23.750Z,24.36
2018-05-10T10:06:52.770Z,23.79
2018-05-10T10:09:21.019Z,22.79
2018-05-10T10:11:50.047Z,24.94
2018-05-10T10:14:18.308Z,26.56
2018-05-10T10:16:46.587Z,26.68
2018-05-10T10:19:14.840Z,26.98
2018-05-10T10:21:43.122Z,24.71
2018-05-10T10:24:11.374Z,23.30
2018-05-10T10:26:39.630Z,25.07
2018-05-10T10:29:07.906Z,25.15
2018-05-10T10:31:36.173Z,23.66
2018-05-10T10:34:05.441Z,23.57
2018-05-10T10:36:33.699Z,24.22
2018-05-10T10:39:01.954Z,25.05
2018-05-10T10:41:30.211Z,25.90
2018-05-10T10:43:59.220Z,29.52
2018-05-10T10:46:27.488Z,31.44
2018-05-10T10:48:56.513Z,30.04
2018-05-10T10:51:24.769Z,29.95
2018-05-10T10:53:53.869Z,32.05
2018-05-10T10:56:22.043Z,33.08
2018-05-10T10:58:51.060Z,32.00
2018-05-10T11:01:19.327Z,27.36
2018-05-10T11:03:47.579Z,31.92
2018-05-10T11:06:15.852Z,35.54
2018-05-10T11:08:44.108Z,33.53
2018-05-10T11:11:12.371Z,36.26
2018-05-10T11:13:40.628Z,39.95
2018-05-10T11:16:09.646Z,33.49
2018-05-10T11:18:37.905Z,33.77
2018-05-10T11:21:06.174Z,32.31
2018-05-10T11:23:35.182Z,30.58
2018-05-10T11:26:04.094Z,28.56
2018-05-10T11:28:32.355Z,30.34
2018-05-10T11:31:01.391Z,34.03
2018-05-10T11:33:29.640Z,33.76
2018-05-10T11:35:57.920Z,33.49
2018-05-10T11:38:26.170Z,34.14
2018-05-10T11:40:54.427Z,36.32
2018-05-10T11:43:22.697Z,34.40
2018-05-10T11:45:50.955Z,33.02
2018-05-10T11:48:19.225Z,30.41
2018-05-10T11:50:47.472Z,32.30
2018-05-10T11:53:15.739Z,32.64
2018-05-10T11:55:43.983Z,30.94
2018-05-10T11:58:12.245Z,34.62
2018-05-10T12:00:40.497Z,34.85
2018-05-10T12:03:08.990Z,32.21
2018-05-10T12:05:38.003Z,31.04
2018-05-10T12:08:06.247Z,30.39
2018-05-10T12:10:34.506Z,32.67
2018-05-10T12:13:02.768Z,27.55
2018-05-10T12:15:31.018Z,34.06
2018-05-10T12:17:59.283Z,33.84
2018-05-10T12:20:28.314Z,33.93
2018-05-10T12:22:57.327Z,29.02
2018-05-10T12:25:25.586Z,29.73
2018-05-10T12:27:53.844Z,31.42
2018-05-10T12:30:22.891Z,32.97
2018-05-10T12:32:51.135Z,35.67
2018-05-10T12:35:20.155Z,35.38
2018-05-10T12:37:48.412Z,34.12
2018-05-10T12:40:17.439Z,36.18
2018-05-10T12:42:45.712Z,33.73
2018-05-10T12:45:13.959Z,35.37
2018-05-10T12:47:42.987Z,35.45
2018-05-10T12:50:11.842Z,35.19
2018-05-10T12:52:40.099Z,34.75
2018-05-10T12:55:08.359Z,33.48
2018-05-10T12:57:36.628Z,35.06
2018-05-10T13:00:04.871Z,34.72
2018-05-10T13:02:33.925Z,33.02
2018-05-10T13:05:02.176Z,35.50
2018-05-10T13:07:30.435Z,32.97
2018-05-10T13:09:59.457Z,36.48
2018-05-10T13:12:27.718Z,33.38
2018-05-10T13:14:56.744Z,33.44
2018-05-10T13:17:24.991Z,34.23
2018-05-10T13:19:54.026Z,34.20
2018-05-10T13:22:22.292Z,34.34
2018-05-10T13:24:51.327Z,33.92
2018-05-10T13:27:19.661Z,34.56
2018-05-10T13:29:47.859Z,37.81
2018-05-10T13:32:16.871Z,34.12
2018-05-10T13:34:45.140Z,36.99
2018-05-10T13:37:13.389Z,37.26
2018-05-10T13:39:42.415Z,35.91
2018-05-10T13:42:10.664Z,37.20
2018-05-10T13:44:39.695Z,34.62
2018-05-10T13:47:08.015Z,37.14
2018-05-10T13:49:36.983Z,36.30
2018-05-10T13:52:05.259Z,35.84
2018-05-10T13:54:33.512Z,36.66
2018-05-10T13:57:01.772Z,34.98
2018-05-10T13:59:30.048Z,35.66
2018-05-10T14:01:58.303Z,34.85
2018-05-10T14:04:26.576Z,36.54
2018-05-10T14:06:54.818Z,34.79
2018-05-10T14:09:23.089Z,35.75
2018-05-10T14:11:52.104Z,35.68
2018-05-10T14:14:20.375Z,38.50
2018-05-10T14:16:48.627Z,35.18
2018-05-10T14:19:16.904Z,37.82
2018-05-10T14:21:45.148Z,35.86
2018-05-10T14:24:13.415Z,34.90
2018-05-10T14:26:41.671Z,35.73
2018-05-10T14:29:10.695Z,35.63
2018-05-10T14:31:38.952Z,36.96
2018-05-10T14:34:07.989Z,40.12
2018-05-10T14:36:36.240Z,39.96
2018-05-10T14:39:05.412Z,40.10
2018-05-10T14:41:34.440Z,40.73
2018-05-10T14:44:02.707Z,42.39
2018-05-10T14:46:32.959Z,43.89
2018-05-10T14:49:01.231Z,42.28
2018-05-10T14:51:29.475Z,41.81
2018-05-10T14:53:58.570Z,42.11
2018-05-10T14:56:26.771Z,42.41
2018-05-10T14:58:55.797Z,43.96
2018-05-10T15:01:24.071Z,44.57
2018-05-10T15:03:52.333Z,43.83
2018-05-10T15:06:20.602Z,44.55
2018-05-10T15:08:49.627Z,46.34
2018-05-10T15:11:17.897Z,47.84
2018-05-10T15:13:46.175Z,47.00
2018-05-10T15:16:15.261Z,47.44
2018-05-10T15:18:44.271Z,48.56
2018-05-10T15:21:12.537Z,47.47
2018-05-10T15:23:41.627Z,47.22
2018-05-10T15:26:09.813Z,47.05
2018-05-10T15:28:40.078Z,47.02
2018-05-10T15:31:08.331Z,47.16
2018-05-10T15:33:37.352Z,47.04
2018-05-10T15:36:05.614Z,46.61
2018-05-10T15:38:34.631Z,46.98
2018-05-10T15:41:02.895Z,47.34
2018-05-10T15:43:31.155Z,46.95
2018-05-10T15:46:00.179Z,47.96
2018-05-10T15:48:28.438Z,47.66
2018-05-10T15:50:57.463Z,47.77
2018-05-10T15:53:25.728Z,46.18
2018-05-10T15:55:54.008Z,47.73
2018-05-10T15:58:22.336Z,45.42
2018-05-10T16:00:50.535Z,45.40
2018-05-10T16:03:18.790Z,45.52
2018-05-10T16:05:47.056Z,44.62
2018-05-10T16:08:15.294Z,44.77
2018-05-10T16:10:45.569Z,45.46
2018-05-10T16:13:13.815Z,43.78
2018-05-10T16:15:42.082Z,44.68
2018-05-10T16:18:11.095Z,46.34
2018-05-10T16:20:39.347Z,46.92
2018-05-10T16:23:07.632Z,46.69
2018-05-10T16:25:35.900Z,46.39
2018-05-10T16:28:04.148Z,44.30
2018-05-10T16:30:32.419Z,45.64
2018-05-10T16:33:00.667Z,46.82
2018-05-10T16:35:29.701Z,43.95
2018-05-10T16:37:59.407Z,46.07
2018-05-10T16:40:27.681Z,45.88
2018-05-10T16:42:55.936Z,47.79
2018-05-10T16:45:24.971Z,48.21
2018-05-10T16:47:53.219Z,48.44
2018-05-10T16:50:22.247Z,48.60
2018-05-10T16:52:50.691Z,49.42
2018-05-10T16:55:19.707Z,49.31
2018-05-10T16:57:47.971Z,49.57
2018-05-10T17:00:16.993Z,49.77
2018-05-10T17:02:45.248Z,50.39
2018-05-10T17:05:14.263Z,50.33
2018-05-10T17:07:42.530Z,51.06
2018-05-10T17:10:11.556Z,50.40
2018-05-10T17:12:40.356Z,50.91
2018-05-10T17:15:08.611Z,51.10
2018-05-10T17:17:37.631Z,52.65
2018-05-10T17:20:05.896Z,52.80
2018-05-10T17:22:34.910Z,53.20
2018-05-10T17:25:03.177Z,52.70
2018-05-10T17:27:31.562Z,52.95
2018-05-10T17:30:00.833Z,53.78
2018-05-10T17:32:29.105Z,52.51
2018-05-10T17:34:57.360Z,53.36
2018-05-10T17:37:25.619Z,53.52
2018-05-10T17:39:53.870Z,53.11
2018-05-10T17:42:22.898Z,54.96
2018-05-10T17:44:51.147Z,54.75
2018-05-10T17:47:20.174Z,55.31
2018-05-10T17:49:48.433Z,54.16
2018-05-10T17:52:16.711Z,54.26
2018-05-10T17:54:45.721Z,55.50
2018-05-10T17:57:14.808Z,56.34
2018-05-10T17:59:43.823Z,57.08
2018-05-10T18:02:12.091Z,57.24
2018-05-10T18:04:40.338Z,57.07
2018-05-10T18:07:08.634Z,58.55
2018-05-10T18:09:36.862Z,58.84
2018-05-10T18:12:05.128Z,58.98
2018-05-10T18:14:33.394Z,59.76
2018-05-10T18:17:01.654Z,60.08
2018-05-10T18:19:29.921Z,59.63
2018-05-10T18:21:58.173Z,59.99
2018-05-10T18:24:26.419Z,60.27
2018-05-10T18:26:54.714Z,61.07
2018-05-10T18:29:23.710Z,62.64
2018-05-10T18:31:51.975Z,62.29
2018-05-10T18:34:20.226Z,62.03
2018-05-10T18:36:48.493Z,63.02
2018-05-10T18:39:16.750Z,65.19
2018-05-10T18:41:45.007Z,67.42
2018-05-10T18:44:13.267Z,71.71
2018-05-10T18:46:42.290Z,74.53
2018-05-10T18:49:10.876Z,74.90
2018-05-10T18:51:39.120Z,76.04
2018-05-10T18:54:08.133Z,75.85
2018-05-10T18:56:36.403Z,77.18
2018-05-10T18:59:05.427Z,77.07
2018-05-10T19:01:33.695Z,79.57
2018-05-10T19:04:01.975Z,81.14
2018-05-10T19:06:30.229Z,82.16
2018-05-10T19:08:58.498Z,82.05
2018-05-10T19:11:26.747Z,82.35
2018-05-10T19:13:55.018Z,84.09
2018-05-10T19:16:23.275Z,85.69
2018-05-10T19:18:52.294Z,86.48
2018-05-10T19:21:20.563Z,85.96
2018-05-10T19:23:48.825Z,85.86
2018-05-10T19:26:17.842Z,86.62
2018-05-10T19:28:46.116Z,86.45
2018-05-10T19:31:14.362Z,86.05
2018-05-10T19:33:42.634Z,87.21
2018-05-10T19:36:10.969Z,86.15
2018-05-10T19:38:39.220Z,86.62
2018-05-10T19:41:08.248Z,86.55
2018-05-10T19:43:37.271Z,86.01
2018-05-10T19:46:05.521Z,87.29
2018-05-10T19:48:33.787Z,87.41
2018-05-10T19:51:02.817Z,88.05
2018-05-10T19:53:31.083Z,88.93
2018-05-10T19:55:59.339Z,89.47
2018-05-10T19:58:28.371Z,89.15
2018-05-10T20:00:56.628Z,88.54
2018-05-10T20:03:25.853Z,88.01
2018-05-10T20:05:54.106Z,86.82
2018-05-10T20:08:23.141Z,87.26
2018-05-10T20:10:51.386Z,88.08
2018-05-10T20:13:20.420Z,88.30
2018-05-10T20:15:48.681Z,89.10
2018-05-10T20:18:16.930Z,89.54
2018-05-10T20:20:45.961Z,88.80
2018-05-10T20:23:14.237Z,88.38
2018-05-10T20:25:42.507Z,88.87
2018-05-10T20:28:11.634Z,89.26
2018-05-10T20:30:39.788Z,89.62
2018-05-10T20:33:08.049Z,88.21
2018-05-10T20:35:37.068Z,89.36
2018-05-10T20:38:05.339Z,90.09
2018-05-10T20:40:34.367Z,89.60
2018-05-10T20:43:02.717Z,90.08
2018-05-10T20:45:30.954Z,90.42
2018-05-10T20:47:59.231Z,89.73
2018-05-10T20:50:27.555Z,90.68
2018-05-10T20:52:55.775Z,90.00
2018-05-10T20:55:24.051Z,90.01
2018-05-10T20:57:52.306Z,90.38
2018-05-10T21:00:20.570Z,90.47
2018-05-10T21:02:49.597Z,89.55
2018-05-10T21:05:17.862Z,89.68
2018-05-10T21:07:46.890Z,91.21
2018-05-10T21:10:15.156Z,89.58
2018-05-10T21:12:43.428Z,91.33
2018-05-10T21:15:11.698Z,90.06
2018-05-10T21:17:40.716Z,88.67
2018-05-10T21:20:09.563Z,89.60
2018-05-10T21:22:37.823Z,89.14
2018-05-10T21:25:06.094Z,88.68
2018-05-10T21:27:34.355Z,89.36
2018-05-10T21:30:02.619Z,87.39
2018-05-10T21:32:30.876Z,86.09
2018-05-10T21:34:59.142Z,85.70
2018-05-10T21:37:27.403Z,86.20
2018-05-10T21:39:55.664Z,85.72
2018-05-10T21:42:23.908Z,85.93
2018-05-10T21:44:53.035Z,86.25
2018-05-10T21:47:21.186Z,86.81
2018-05-10T21:50:05.567Z,87.46
2018-05-10T21:52:33.814Z,84.28
2018-05-10T21:55:02.860Z,84.21
2018-05-10T21:57:31.100Z,84.17
2018-05-10T21:59:59.371Z,84.37
2018-05-10T22:02:28.374Z,85.90
2018-05-10T22:04:57.468Z,85.64
2018-05-10T22:07:26.488Z,84.74
2018-05-10T22:09:54.751Z,84.73
2018-05-10T22:12:23.771Z,84.87
2018-05-10T22:14:52.018Z,84.94
2018-05-10T22:17:21.077Z,84.75
2018-05-10T22:19:49.336Z,85.38
2018-05-10T22:25:16.192Z,86.39
2018-05-10T22:27:44.449Z,86.10
2018-05-10T22:30:13.467Z,86.41
2018-05-10T22:32:41.707Z,87.18
2018-05-10T22:35:10.643Z,87.44
2018-05-10T22:37:38.875Z,87.42
2018-05-10T22:40:07.123Z,88.38
2018-05-10T22:42:35.369Z,88.49
2018-05-10T22:45:03.623Z,88.45
2018-05-10T22:47:32.636Z,87.97
2018-05-10T22:50:01.660Z,88.76
2018-05-10T22:52:29.917Z,89.01
2018-05-10T22:54:58.943Z,89.31
2018-05-10T22:57:27.189Z,89.02
2018-05-10T22:59:56.288Z,89.88
2018-05-10T23:02:25.314Z,89.55
2018-05-10T23:04:53.557Z,89.30
2018-05-10T23:07:22.570Z,90.03
2018-05-10T23:09:50.825Z,89.48
2018-05-10T23:12:19.072Z,89.29
2018-05-10T23:14:47.317Z,89.45
2018-05-10T23:17:15.579Z,89.59
2018-05-10T23:19:44.591Z,89.21
2018-05-10T23:22:13.366Z,88.97
2018-05-10T23:24:42.370Z,89.50
2018-05-10T23:27:11.393Z,91.12
2018-05-10T23:29:39.676Z,89.92
2018-05-10T23:32:08.675Z,90.83
2018-05-10T23:34:36.919Z,90.89
2018-05-10T23:37:05.938Z,91.06
2018-05-10T23:39:34.183Z,89.87
2018-05-10T23:42:02.434Z,90.24
2018-05-10T23:44:30.693Z,89.61
2018-05-10T23:46:58.959Z,89.03
2018-05-10T23:49:28.481Z,89.31
2018-05-10T23:51:56.726Z,89.34
2018-05-10T23:54:25.753Z,88.71
2018-05-10T23:56:54.007Z,89.33
2018-05-10T23:59:23.011Z,89.01
